CHC2 weather

CLOSED Stewart (Health Centre) Heliport
Stewart, British Columbia, Canada

Public forecast

Using degrees Celsius for public forecast. Weather courtesy of forecast.io.

Closest aviation weather report (METAR) to Stewart (Health Centre) Heliport

Closest report is Stewart Airport, 0.4 nm (0.8 km) SE. Retrieved 2019/11/16 00:00 UTC (27 minutes ago):

CZST 160000Z 00000KT 8SM -RA SCT005 BKN012 OVC018 05/05 A2984 RMK SC4SC2SC2 CLIMAT 58/44/26 SLP105

Closest aviation forecast (TAF) to Stewart (Health Centre) Heliport

Closest forecast is Ketchikan International Airport, 68.1 nm (126.1 km) WSW. Retrieved 2019-11-16 00:39 UTC (0 seconds ago):

TAF PAKT 152337Z 1600/1624 14011KT P6SM -SHRA SCT020 BKN030 OVC040 FM161000 14015G25KT 5SM RA BKN040 OVC060 WS020/16045KT FM161500 14025G35KT 4SM +RA BR OVC015 WS020/14060KT FM162000 14015G25KT 4SM +RA BR SCT015 OVC025 AMD LTD TO CLD VIS AND WIND 1606/1615